Time;durP1;ratioP1;P1;durP2;ratioP2;P2;SDS_P1;SDS_P2;PMS_P1;PMS_P2;Temp;Humidity;BMP_temperature;BMP_pressure;BME280_temperature;BME280_humidity;BME280_pressure;Samples;Min_cycle;Max_cycle;Signal;HPM_P1;HPM_P2
2021/04/14 00:02:22;;;;;;;7.53;3.53;;;8.90;99.90;;;;;;5001908;28;20177;-69
2021/04/14 00:04:48;;;;;;;4.37;3.20;;;8.90;99.90;;;;;;5020629;28;20177;-69
2021/04/14 00:07:15;;;;;;;3.80;3.40;;;9.00;99.90;;;;;;4984510;28;20235;-70
2021/04/14 00:09:43;;;;;;;3.60;3.07;;;8.90;99.90;;;;;;5014975;28;20192;-70
2021/04/14 00:12:12;;;;;;;4.37;3.30;;;8.80;99.90;;;;;;4982486;28;20189;-69
2021/04/14 00:14:39;;;;;;;3.63;3.30;;;8.70;99.90;;;;;;5000711;28;20189;-69
2021/04/14 00:17:07;;;;;;;6.10;3.83;;;8.60;99.90;;;;;;5002272;28;20751;-70
2021/04/14 00:19:33;;;;;;;6.43;3.40;;;8.60;99.90;;;;;;5006615;28;20252;-69
2021/04/14 00:22:01;;;;;;;4.00;3.13;;;8.80;99.90;;;;;;4983518;28;20208;-69
2021/04/14 00:24:27;;;;;;;5.00;3.60;;;8.80;99.90;;;;;;4987101;28;20327;-70
2021/04/14 00:26:54;;;;;;;4.30;3.50;;;8.70;99.90;;;;;;4996719;28;20243;-70
2021/04/14 00:29:20;;;;;;;6.30;3.37;;;8.80;99.90;;;;;;5003836;28;20189;-70
2021/04/14 00:31:47;;;;;;;4.77;3.37;;;8.80;99.90;;;;;;4998532;28;20640;-70
2021/04/14 00:34:20;;;;;;;4.13;3.23;;;8.80;99.90;;;;;;4987031;28;20273;-70
2021/04/14 00:36:48;;;;;;;3.83;3.13;;;8.80;99.90;;;;;;5003649;28;20576;-70
2021/04/14 00:39:25;;;;;;;4.40;3.35;;;8.80;99.90;;;;;;5000580;28;20665;-70
2021/04/14 00:41:54;;;;;;;5.90;3.47;;;8.70;99.90;;;;;;4979695;28;20204;-70
2021/04/14 00:44:22;;;;;;;5.23;3.63;;;8.70;99.90;;;;;;5004551;28;20186;-69
2021/04/14 00:46:50;;;;;;;4.03;2.90;;;8.80;99.90;;;;;;4979499;28;20491;-69
2021/04/14 00:49:16;;;;;;;4.90;2.83;;;8.80;99.90;;;;;;4989211;28;20534;-72
2021/04/14 00:51:44;;;;;;;2.73;2.20;;;9.00;99.90;;;;;;4984421;28;20207;-72
2021/04/14 00:54:13;;;;;;;2.80;2.50;;;9.10;99.90;;;;;;5000058;28;20860;-72
2021/04/14 00:56:39;;;;;;;3.83;2.60;;;9.10;99.90;;;;;;4993032;28;20195;-72
2021/04/14 00:59:05;;;;;;;3.70;2.37;;;9.00;99.90;;;;;;5002623;28;20822;-72
2021/04/14 01:01:32;;;;;;;3.03;2.27;;;9.10;99.90;;;;;;4997402;28;20209;-72
2021/04/14 01:03:58;;;;;;;3.47;1.90;;;9.00;99.90;;;;;;5016207;28;20241;-71
2021/04/14 01:06:27;;;;;;;2.53;2.13;;;9.00;99.90;;;;;;5002698;28;20185;-69
2021/04/14 01:08:55;;;;;;;2.80;2.17;;;8.90;99.90;;;;;;5002697;28;20193;-69
2021/04/14 01:11:26;;;;;;;3.03;2.17;;;8.80;99.90;;;;;;4994500;28;20189;-70
2021/04/14 01:13:52;;;;;;;3.40;2.10;;;8.80;99.90;;;;;;5014782;28;20396;-69
2021/04/14 01:16:19;;;;;;;2.03;1.83;;;8.70;99.90;;;;;;5002815;28;20669;-69
2021/04/14 01:18:46;;;;;;;1.77;1.67;;;8.60;99.90;;;;;;4999833;28;20332;-69
2021/04/14 01:21:18;;;;;;;3.57;2.00;;;8.50;99.90;;;;;;4998288;28;20286;-69
2021/04/14 01:23:44;;;;;;;5.23;1.87;;;8.30;99.90;;;;;;4996775;28;20325;-72
2021/04/14 01:26:11;;;;;;;3.60;2.10;;;8.20;99.90;;;;;;4998750;28;20181;-72
2021/04/14 01:28:41;;;;;;;2.63;1.90;;;8.10;99.90;;;;;;4983638;28;20188;-69
2021/04/14 01:31:12;;;;;;;2.73;2.10;;;8.10;99.90;;;;;;4998682;28;20197;-69
2021/04/14 01:33:40;;;;;;;3.57;1.73;;;8.00;99.90;;;;;;5000307;28;20265;-69
2021/04/14 01:36:09;;;;;;;5.83;2.07;;;8.00;99.90;;;;;;5000738;28;20181;-71
2021/04/14 01:38:37;;;;;;;3.83;1.80;;;8.00;99.90;;;;;;4993632;28;20239;-71
2021/04/14 01:41:06;;;;;;;3.53;2.10;;;7.90;99.90;;;;;;4999231;28;20217;-71
2021/04/14 01:43:32;;;;;;;2.10;1.90;;;7.90;99.90;;;;;;5005215;28;20638;-72
2021/04/14 01:45:59;;;;;;;2.23;1.93;;;7.90;99.90;;;;;;5004767;28;20181;-71
2021/04/14 01:48:25;;;;;;;2.53;2.00;;;8.00;99.90;;;;;;5003845;28;20288;-71
2021/04/14 01:50:51;;;;;;;4.60;1.67;;;8.00;99.90;;;;;;4981543;28;20616;-71
2021/04/14 01:53:20;;;;;;;2.93;1.90;;;8.00;99.90;;;;;;4978552;28;20228;-71
2021/04/14 01:55:50;;;;;;;2.53;1.70;;;8.00;99.90;;;;;;5012398;28;21494;-71
2021/04/14 01:58:18;;;;;;;2.77;1.87;;;8.00;99.90;;;;;;4996991;28;20189;-71
2021/04/14 02:00:53;;;;;;;2.53;1.87;;;8.00;99.90;;;;;;5002597;28;20820;-71
2021/04/14 02:03:22;;;;;;;5.53;1.77;;;8.00;99.90;;;;;;5004703;28;20220;-71
2021/04/14 02:05:48;;;;;;;2.87;1.77;;;8.00;99.90;;;;;;4976960;28;20189;-71
2021/04/14 02:08:15;;;;;;;3.10;2.17;;;8.00;99.90;;;;;;5000796;28;20200;-71
2021/04/14 02:10:41;;;;;;;3.17;2.10;;;8.10;99.90;;;;;;4982990;28;20185;-71
2021/04/14 02:13:20;;;;;;;4.37;2.30;;;8.20;99.90;;;;;;4979115;28;20559;-71
2021/04/14 02:15:48;;;;;;;2.50;2.00;;;8.30;99.90;;;;;;5008290;28;20332;-71
2021/04/14 02:18:15;;;;;;;4.30;2.27;;;8.30;99.90;;;;;;4992462;28;20271;-71
2021/04/14 02:20:41;;;;;;;4.30;2.23;;;8.30;99.90;;;;;;5001628;28;20338;-69
2021/04/14 02:23:15;;;;;;;2.93;2.63;;;8.30;99.90;;;;;;4983401;28;20665;-71
2021/04/14 02:25:43;;;;;;;5.63;2.40;;;8.20;99.90;;;;;;4999821;28;20592;-69
2021/04/14 02:28:10;;;;;;;4.03;2.27;;;8.10;99.90;;;;;;5004467;28;20523;-69
2021/04/14 02:30:37;;;;;;;3.03;2.63;;;8.20;99.90;;;;;;5014614;28;20185;-69
2021/04/14 02:33:06;;;;;;;3.03;2.43;;;8.20;99.90;;;;;;4993730;28;20272;-69
2021/04/14 02:35:33;;;;;;;2.50;2.30;;;8.20;99.90;;;;;;5018846;28;20740;-69
2021/04/14 02:38:00;;;;;;;4.70;2.40;;;8.20;99.90;;;;;;4997030;28;20188;-69
2021/04/14 02:40:27;;;;;;;5.00;2.37;;;8.20;99.90;;;;;;4995827;28;20211;-69
2021/04/14 02:42:53;;;;;;;2.93;2.40;;;8.10;99.90;;;;;;5015767;28;20295;-71
2021/04/14 02:45:25;;;;;;;3.27;2.83;;;8.00;99.90;;;;;;4983784;28;20191;-71
2021/04/14 02:47:51;;;;;;;4.13;3.10;;;8.00;99.90;;;;;;5003710;28;20181;-71
2021/04/14 02:50:19;;;;;;;2.87;2.63;;;8.10;99.90;;;;;;4984245;28;20645;-72
2021/04/14 02:52:46;;;;;;;2.97;2.70;;;8.10;99.90;;;;;;5000152;28;20181;-71
2021/04/14 02:55:15;;;;;;;3.97;3.00;;;8.20;99.90;;;;;;4998338;28;20189;-69
2021/04/14 02:57:42;;;;;;;4.40;2.67;;;8.40;99.90;;;;;;5001898;28;20711;-70
2021/04/14 03:00:11;;;;;;;3.63;2.77;;;8.60;99.90;;;;;;4998939;28;20228;-69
2021/04/14 03:02:38;;;;;;;3.50;2.70;;;8.70;99.90;;;;;;4991243;28;20239;-69
2021/04/14 03:05:08;;;;;;;3.27;2.73;;;8.80;99.90;;;;;;4998290;28;20185;-69
2021/04/14 03:07:34;;;;;;;4.57;2.43;;;8.90;99.90;;;;;;4998970;28;20527;-69
2021/04/14 03:10:01;;;;;;;2.83;2.27;;;9.10;99.90;;;;;;4997236;28;20311;-69
2021/04/14 03:12:28;;;;;;;3.80;2.50;;;9.10;99.90;;;;;;5001068;28;20687;-69
2021/04/14 03:14:55;;;;;;;4.30;2.80;;;9.30;99.90;;;;;;4976608;28;20398;-69
2021/04/14 03:17:21;;;;;;;4.17;2.43;;;9.40;99.90;;;;;;4999381;28;20546;-69
2021/04/14 03:19:48;;;;;;;2.57;2.20;;;9.50;99.90;;;;;;4981672;28;20213;-71
2021/04/14 03:22:14;;;;;;;4.80;2.77;;;9.50;99.90;;;;;;4994919;28;20201;-71
2021/04/14 03:24:41;;;;;;;3.07;2.53;;;9.50;99.90;;;;;;5011868;28;20188;-72
2021/04/14 03:27:08;;;;;;;5.93;2.53;;;9.50;99.90;;;;;;4998834;28;20184;-71
2021/04/14 03:29:34;;;;;;;2.57;2.37;;;9.60;99.90;;;;;;4992533;28;20224;-71
2021/04/14 03:32:01;;;;;;;2.50;2.30;;;9.70;99.90;;;;;;5000107;28;20254;-71
2021/04/14 03:34:28;;;;;;;4.33;2.50;;;9.70;99.90;;;;;;5000883;28;20530;-71
2021/04/14 03:36:54;;;;;;;2.93;2.27;;;9.70;99.90;;;;;;5008433;28;20924;-71
2021/04/14 03:39:20;;;;;;;2.87;2.33;;;9.60;99.90;;;;;;5001812;28;20213;-71
2021/04/14 03:41:47;;;;;;;3.50;2.47;;;9.60;99.90;;;;;;4997780;28;20225;-71
2021/04/14 03:44:13;;;;;;;4.57;2.80;;;9.50;99.90;;;;;;4996696;28;20810;-71
2021/04/14 03:46:39;;;;;;;5.60;2.23;;;9.40;99.90;;;;;;5012456;28;20193;-71
2021/04/14 03:49:06;;;;;;;7.20;2.40;;;9.40;99.90;;;;;;5016059;28;20225;-71
2021/04/14 03:51:33;;;;;;;3.10;2.33;;;9.40;99.90;;;;;;5017975;28;20196;-71
2021/04/14 03:53:59;;;;;;;2.30;2.07;;;9.50;99.90;;;;;;5000040;28;20193;-71
2021/04/14 03:56:26;;;;;;;2.83;2.30;;;9.40;99.90;;;;;;5004409;28;20295;-71
2021/04/14 03:58:55;;;;;;;2.60;2.03;;;9.20;99.90;;;;;;4979834;28;20228;-69
2021/04/14 04:02:05;;;;;;;3.97;2.60;;;9.20;99.90;;;;;;5020178;28;20217;-69
2021/04/14 04:04:31;;;;;;;2.30;2.00;;;9.10;99.90;;;;;;5002207;28;20306;-69
2021/04/14 04:06:58;;;;;;;5.67;2.50;;;9.20;99.90;;;;;;5006644;28;20243;-69
2021/04/14 04:09:24;;;;;;;2.90;2.23;;;9.20;99.90;;;;;;5004846;28;20208;-69
2021/04/14 04:11:50;;;;;;;3.60;2.13;;;9.20;99.90;;;;;;5005704;28;20240;-71
2021/04/14 04:14:17;;;;;;;6.37;2.30;;;9.20;99.90;;;;;;5006815;28;20216;-71
2021/04/14 04:16:43;;;;;;;3.07;2.50;;;9.20;99.90;;;;;;4999208;28;20216;-71
2021/04/14 04:19:09;;;;;;;2.87;2.13;;;9.30;99.90;;;;;;4989859;28;20197;-71
2021/04/14 04:21:35;;;;;;;3.77;2.30;;;9.30;99.90;;;;;;5005269;28;20221;-71
2021/04/14 04:24:02;;;;;;;4.73;2.43;;;9.30;99.90;;;;;;5008241;28;20707;-71
2021/04/14 04:26:28;;;;;;;2.80;2.43;;;9.30;99.90;;;;;;4985517;28;20272;-71
2021/04/14 04:28:54;;;;;;;3.70;2.17;;;9.50;99.90;;;;;;5005527;28;20207;-71
2021/04/14 04:31:21;;;;;;;4.10;2.27;;;9.50;99.90;;;;;;4979685;28;20519;-71
2021/04/14 04:33:47;;;;;;;3.97;2.60;;;9.70;99.90;;;;;;5004914;28;20200;-71
2021/04/14 04:36:14;;;;;;;3.90;2.50;;;9.80;99.90;;;;;;5022834;28;20207;-71
2021/04/14 04:38:40;;;;;;;4.73;2.90;;;9.90;99.90;;;;;;5017838;28;20205;-71
2021/04/14 04:41:06;;;;;;;3.27;2.37;;;10.00;99.90;;;;;;5020951;28;20205;-71
2021/04/14 04:43:33;;;;;;;4.43;2.47;;;10.10;99.90;;;;;;5022146;28;20204;-71
2021/04/14 04:45:59;;;;;;;3.13;2.30;;;10.10;99.90;;;;;;4997075;28;20190;-71
2021/04/14 04:48:26;;;;;;;5.40;2.80;;;10.20;99.90;;;;;;5021114;28;20231;-71
2021/04/14 04:50:53;;;;;;;2.57;2.30;;;10.30;99.90;;;;;;5003822;28;20196;-72
2021/04/14 04:53:23;;;;;;;3.23;2.30;;;10.30;99.90;;;;;;5006497;28;20499;-72
2021/04/14 04:55:53;;;;;;;2.97;2.63;;;10.40;99.90;;;;;;4989304;28;20657;-71
2021/04/14 04:58:20;;;;;;;3.90;2.90;;;10.40;99.90;;;;;;5003277;28;20200;-72
2021/04/14 05:00:48;;;;;;;2.50;2.30;;;10.50;99.90;;;;;;5015200;28;20243;-71
2021/04/14 05:03:17;;;;;;;3.43;2.50;;;10.50;99.90;;;;;;5019115;28;20204;-72
2021/04/14 05:05:43;;;;;;;2.93;2.40;;;10.50;99.90;;;;;;5003482;28;20193;-71
2021/04/14 05:08:11;;;;;;;4.47;2.30;;;10.50;99.90;;;;;;5005591;28;20690;-72
2021/04/14 05:10:39;;;;;;;3.30;2.73;;;10.60;99.90;;;;;;5002646;28;20189;-71
2021/04/14 05:13:07;;;;;;;3.70;3.00;;;10.70;99.90;;;;;;5015877;28;20460;-72
2021/04/14 05:15:38;;;;;;;3.53;3.10;;;10.80;99.90;;;;;;5002196;28;20665;-71
2021/04/14 05:18:07;;;;;;;2.60;2.40;;;10.80;99.90;;;;;;5018506;28;20205;-72
2021/04/14 05:20:33;;;;;;;5.50;2.77;;;10.90;99.90;;;;;;5003038;28;20743;-72
2021/04/14 05:23:00;;;;;;;4.03;2.50;;;11.00;99.90;;;;;;5001469;28;20228;-71
2021/04/14 05:25:32;;;;;;;4.57;2.43;;;11.10;99.90;;;;;;5005275;28;20208;-70
2021/04/14 05:28:06;;;;;;;4.70;2.50;;;11.10;99.90;;;;;;4994448;28;20197;-70
2021/04/14 05:30:33;;;;;;;4.37;2.70;;;11.20;99.90;;;;;;5003895;28;20193;-72
2021/04/14 05:33:01;;;;;;;4.17;2.27;;;11.30;99.90;;;;;;5001290;28;20602;-70
2021/04/14 05:35:28;;;;;;;3.73;2.67;;;11.30;99.90;;;;;;4985598;28;20236;-69
2021/04/14 05:37:54;;;;;;;2.73;2.30;;;11.40;99.90;;;;;;5000013;28;20204;-69
2021/04/14 05:40:23;;;;;;;4.77;2.77;;;11.50;99.90;;;;;;5018871;28;20217;-69
2021/04/14 05:42:51;;;;;;;2.40;2.17;;;11.50;99.90;;;;;;5019506;28;20184;-68
2021/04/14 05:45:29;;;;;;;2.90;2.30;;;11.60;99.90;;;;;;5000573;28;20271;-68
2021/04/14 05:47:57;;;;;;;4.47;2.33;;;11.70;99.90;;;;;;5004484;28;20267;-69
2021/04/14 05:50:26;;;;;;;2.93;2.37;;;11.80;99.90;;;;;;4979043;28;20197;-69
2021/04/14 05:52:53;;;;;;;4.23;2.40;;;11.80;99.90;;;;;;4999922;28;20181;-69
2021/04/14 05:55:21;;;;;;;4.00;2.57;;;11.90;99.90;;;;;;5002910;28;20207;-69
2021/04/14 05:57:47;;;;;;;3.20;1.90;;;12.00;99.90;;;;;;4984848;28;20228;-69
2021/04/14 06:00:17;;;;;;;3.37;2.30;;;12.30;99.90;;;;;;5003958;28;20777;-69
2021/04/14 06:02:43;;;;;;;2.40;2.20;;;12.30;99.90;;;;;;4998510;28;20189;-69
2021/04/14 06:05:14;;;;;;;4.03;2.20;;;12.40;99.90;;;;;;5009297;28;20279;-69
2021/04/14 06:07:40;;;;;;;4.00;2.20;;;12.30;99.90;;;;;;5002275;28;20193;-69
2021/04/14 06:10:08;;;;;;;3.13;2.10;;;12.50;99.90;;;;;;5002235;28;20796;-69
2021/04/14 06:12:34;;;;;;;2.43;2.03;;;12.50;99.90;;;;;;5019201;28;20197;-69
2021/04/14 06:15:02;;;;;;;3.97;2.13;;;12.70;99.90;;;;;;5002041;28;20231;-71
2021/04/14 06:17:29;;;;;;;4.37;2.07;;;12.80;99.90;;;;;;4997547;28;20263;-69
2021/04/14 06:19:55;;;;;;;4.67;2.10;;;13.00;99.90;;;;;;5006242;28;20230;-71
2021/04/14 06:22:21;;;;;;;2.30;2.10;;;13.00;99.90;;;;;;5003227;28;20192;-71
2021/04/14 06:24:47;;;;;;;3.83;2.27;;;13.20;99.90;;;;;;5004316;28;20220;-71
2021/04/14 06:27:27;;;;;;;2.83;2.20;;;13.20;99.90;;;;;;5004433;28;20196;-71
2021/04/14 06:29:53;;;;;;;5.13;2.10;;;13.50;99.90;;;;;;4997605;28;20276;-71
2021/04/14 06:32:19;;;;;;;3.13;2.03;;;13.80;99.90;;;;;;5007364;28;20197;-71
2021/04/14 06:34:46;;;;;;;3.50;1.97;;;13.80;99.90;;;;;;5003101;28;20273;-71
2021/04/14 06:37:12;;;;;;;3.83;2.03;;;13.80;99.90;;;;;;5017965;28;20204;-71
2021/04/14 06:39:39;;;;;;;2.33;2.00;;;14.00;99.90;;;;;;5004227;28;20231;-71
2021/04/14 06:42:51;;;;;;;4.07;2.23;;;13.90;99.90;;;;;;5003378;28;20188;-72
2021/04/14 06:45:26;;;;;;;3.77;2.00;;;14.00;99.90;;;;;;5009196;28;21088;-71
2021/04/14 06:48:22;;;;;;;1.97;1.57;;;14.20;99.90;;;;;;5002512;28;20243;-71
2021/04/14 06:51:20;;;;;;;3.63;2.00;;;14.40;99.90;;;;;;4993314;28;20200;-71
2021/04/14 06:54:38;;;;;;;2.43;1.63;;;14.40;99.90;;;;;;4981530;28;20185;-71
2021/04/14 06:57:27;;;;;;;2.40;1.60;;;14.30;99.90;;;;;;5001846;28;20204;-71
2021/04/14 07:00:03;;;;;;;1.70;1.60;;;14.50;99.90;;;;;;4995470;28;20221;-72
2021/04/14 07:03:17;;;;;;;2.73;1.70;;;14.60;99.90;;;;;;5000204;28;20572;-71
2021/04/14 07:05:52;;;;;;;2.53;1.60;;;14.70;99.90;;;;;;4997710;28;20543;-71
2021/04/14 07:08:27;;;;;;;1.87;1.63;;;15.00;99.90;;;;;;4998924;28;20198;-72
2021/04/14 07:11:01;;;;;;;3.27;1.47;;;15.20;99.90;;;;;;5000504;28;20187;-71
2021/04/14 07:13:31;;;;;;;2.50;1.70;;;15.00;99.90;;;;;;4993801;28;20196;-71
2021/04/14 07:16:48;;;;;;;2.90;1.80;;;15.10;99.90;;;;;;4977967;28;20266;-71
2021/04/14 07:20:01;;;;;;;2.43;1.70;;;15.10;99.90;;;;;;4967647;28;20441;-71
2021/04/14 07:23:23;;;;;;;1.90;1.40;;;15.40;99.90;;;;;;4984540;28;20185;-71
2021/04/14 07:25:54;;;;;;;3.40;1.60;;;15.30;99.90;;;;;;4983258;28;20195;-71
2021/04/14 07:28:20;;;;;;;2.03;1.40;;;15.40;99.90;;;;;;4997581;28;20260;-71
2021/04/14 07:31:08;;;;;;;5.47;1.57;;;15.50;99.90;;;;;;4998021;28;20721;-72
2021/04/14 07:33:44;;;;;;;2.43;1.63;;;15.60;99.90;;;;;;4981423;28;20334;-72
2021/04/14 07:36:39;;;;;;;2.60;1.77;;;15.80;99.90;;;;;;4998762;28;20188;-72
2021/04/14 07:39:35;;;;;;;1.97;1.53;;;16.00;99.90;;;;;;5016945;28;20181;-72
2021/04/14 07:42:39;;;;;;;2.13;1.57;;;16.10;99.90;;;;;;4988200;28;20220;-72
2021/04/14 07:45:37;;;;;;;2.33;1.67;;;16.00;99.90;;;;;;4984556;28;20236;-72
2021/04/14 07:48:15;;;;;;;2.00;1.70;;;16.00;99.90;;;;;;4998124;28;20271;-72
2021/04/14 07:50:53;;;;;;;1.90;1.70;;;16.20;99.90;;;;;;4997127;28;20189;-71
2021/04/14 07:53:27;;;;;;;1.60;1.50;;;16.00;99.90;;;;;;4998711;28;20201;-71
2021/04/14 07:56:21;;;;;;;3.57;2.00;;;16.10;99.90;;;;;;5001146;28;20909;-71
2021/04/14 07:58:59;;;;;;;2.30;2.00;;;16.40;99.90;;;;;;5000709;28;20216;-71
2021/04/14 08:01:31;;;;;;;2.87;2.07;;;16.50;99.90;;;;;;4995666;28;20228;-71
2021/04/14 08:04:25;;;;;;;2.17;1.97;;;16.60;99.90;;;;;;5001151;28;20220;-74
2021/04/14 08:06:52;;;;;;;3.53;2.43;;;16.70;99.90;;;;;;5000516;28;20195;-72
2021/04/14 08:09:21;;;;;;;8.67;3.03;;;16.80;99.90;;;;;;4999754;28;20227;-71
2021/04/14 08:11:50;;;;;;;4.60;2.80;;;16.90;99.90;;;;;;5011829;28;20193;-72
2021/04/14 08:14:32;;;;;;;6.97;2.83;;;16.90;99.90;;;;;;4986900;28;20533;-73
2021/04/14 08:17:03;;;;;;;4.43;2.30;;;16.90;99.90;;;;;;5001792;28;20200;-71
2021/04/14 08:19:38;;;;;;;4.83;2.13;;;16.80;99.90;;;;;;5005457;28;20193;-74
2021/04/14 08:22:16;;;;;;;4.77;2.10;;;17.00;99.90;;;;;;5020407;28;20196;-71
2021/04/14 08:24:55;;;;;;;3.70;2.30;;;17.00;99.90;;;;;;5003962;28;20189;-70
2021/04/14 08:27:45;;;;;;;3.97;2.30;;;17.10;99.90;;;;;;4996287;28;20257;-71
2021/04/14 08:30:20;;;;;;;6.47;2.70;;;17.20;99.90;;;;;;4999899;28;20242;-73
2021/04/14 08:33:18;;;;;;;4.47;2.40;;;17.20;99.90;;;;;;5001221;28;20188;-72
2021/04/14 08:35:50;;;;;;;4.07;2.40;;;17.40;99.90;;;;;;5003044;28;20208;-72
2021/04/14 08:38:20;;;;;;;3.43;2.57;;;17.40;99.90;;;;;;4999631;28;20196;-71
2021/04/14 08:41:01;;;;;;;4.87;2.70;;;17.40;99.90;;;;;;4997997;28;20209;-73
2021/04/14 08:43:43;;;;;;;4.67;2.40;;;17.50;99.90;;;;;;4999019;28;20331;-72
2021/04/14 08:46:11;;;;;;;4.97;2.80;;;17.60;99.90;;;;;;5000597;28;20251;-72
2021/04/14 08:48:39;;;;;;;6.60;2.40;;;17.60;99.90;;;;;;5003603;28;20208;-72
2021/04/14 08:51:06;;;;;;;4.50;2.20;;;17.80;99.90;;;;;;5003598;28;20971;-73
2021/04/14 08:53:39;;;;;;;5.33;2.33;;;17.80;99.90;;;;;;5010294;28;20591;-73
2021/04/14 08:56:07;;;;;;;5.07;2.30;;;17.80;99.90;;;;;;5002422;28;20221;-72
2021/04/14 08:58:34;;;;;;;3.57;2.10;;;17.90;99.90;;;;;;5006977;28;20255;-72
2021/04/14 09:01:00;;;;;;;4.70;2.40;;;17.90;99.90;;;;;;5016494;28;20259;-72
2021/04/14 09:03:34;;;;;;;6.87;2.80;;;17.90;99.90;;;;;;5002510;28;20184;-72
2021/04/14 09:06:01;;;;;;;5.13;2.07;;;18.00;99.90;;;;;;5016009;28;20240;-73
2021/04/14 09:08:35;;;;;;;4.53;2.53;;;17.90;99.90;;;;;;5000142;28;20193;-72
2021/04/14 09:11:05;;;;;;;7.90;2.50;;;18.00;99.90;;;;;;5002217;28;20690;-69
2021/04/14 09:13:49;;;;;;;4.13;2.50;;;17.90;99.90;;;;;;4984664;28;20276;-70
2021/04/14 09:16:58;;;;;;;2.87;2.10;;;17.90;99.90;;;;;;5003911;28;20213;-74
2021/04/14 09:19:37;;;;;;;5.20;2.23;;;17.90;99.90;;;;;;5005423;28;20228;-71
2021/04/14 09:22:21;;;;;;;4.57;2.60;;;18.10;99.90;;;;;;5009999;28;20244;-70
2021/04/14 09:24:56;;;;;;;4.87;2.37;;;18.40;99.90;;;;;;5000301;28;20300;-73
2021/04/14 09:27:51;;;;;;;6.13;2.50;;;18.50;99.90;;;;;;5004729;28;20185;-73
2021/04/14 09:30:34;;;;;;;5.30;2.40;;;18.50;99.90;;;;;;5003578;28;20921;-70
2021/04/14 09:33:07;;;;;;;4.63;2.83;;;18.40;99.90;;;;;;4986709;28;20654;-72
2021/04/14 09:35:34;;;;;;;5.10;2.30;;;18.40;99.90;;;;;;5013005;28;20186;-73
2021/04/14 09:38:20;;;;;;;5.30;2.13;;;18.40;99.90;;;;;;4981941;28;20316;-74
2021/04/14 09:40:47;;;;;;;5.50;3.00;;;18.40;99.90;;;;;;5005884;28;20246;-73
2021/04/14 09:43:33;;;;;;;4.43;2.60;;;18.50;99.90;;;;;;5006140;28;20189;-76
2021/04/14 09:46:08;;;;;;;4.37;2.70;;;18.50;99.90;;;;;;5002332;28;20208;-74
2021/04/14 09:48:48;;;;;;;9.20;2.80;;;18.70;99.90;;;;;;5002062;28;20191;-73
2021/04/14 09:51:31;;;;;;;5.80;2.30;;;18.90;99.90;;;;;;5003281;28;20212;-72
2021/04/14 09:54:23;;;;;;;5.00;3.00;;;18.80;99.90;;;;;;5019769;28;20275;-73
2021/04/14 09:56:54;;;;;;;2.60;2.17;;;19.00;99.90;;;;;;5004001;28;20201;-75
2021/04/14 09:59:30;;;;;;;3.63;2.23;;;18.70;99.90;;;;;;4985484;28;20768;-73
2021/04/14 10:02:13;;;;;;;3.87;2.37;;;18.90;99.90;;;;;;4981835;28;20565;-73
2021/04/14 10:04:42;;;;;;;4.70;2.20;;;19.10;99.90;;;;;;4998324;28;20189;-73
2021/04/14 10:07:29;;;;;;;4.57;2.27;;;19.30;99.90;;;;;;5020500;28;20192;-72
2021/04/14 10:10:11;;;;;;;3.20;2.40;;;19.30;99.90;;;;;;4978831;28;20238;-72
2021/04/14 10:12:39;;;;;;;4.77;2.20;;;19.30;99.90;;;;;;4996414;28;20680;-71
2021/04/14 10:15:08;;;;;;;6.90;2.37;;;19.40;99.90;;;;;;4980341;28;20227;-73
2021/04/14 10:17:36;;;;;;;3.10;2.20;;;19.80;99.90;;;;;;4983302;28;20565;-73
2021/04/14 10:20:25;;;;;;;3.93;2.40;;;19.90;99.90;;;;;;5004897;28;20304;-72
2021/04/14 10:22:52;;;;;;;6.03;2.60;;;20.10;99.90;;;;;;5002485;28;20184;-71
2021/04/14 10:25:33;;;;;;;3.80;2.23;;;19.90;99.90;;;;;;4997536;28;20279;-73
2021/04/14 10:28:14;;;;;;;4.80;2.43;;;20.00;99.90;;;;;;4996511;28;20258;-70
2021/04/14 10:31:02;;;;;;;6.57;2.70;;;20.30;99.90;;;;;;4985794;28;20189;-71
2021/04/14 10:33:29;;;;;;;5.03;2.30;;;20.30;99.90;;;;;;5002982;28;20313;-71
2021/04/14 10:35:56;;;;;;;3.70;2.40;;;20.40;99.90;;;;;;4985298;28;20259;-71
2021/04/14 10:38:30;;;;;;;5.97;2.50;;;20.40;99.90;;;;;;4980207;28;20807;-70
2021/04/14 10:40:58;;;;;;;7.37;2.47;;;20.40;99.90;;;;;;5003313;28;20220;-72
2021/04/14 10:43:27;;;;;;;5.70;2.30;;;20.40;99.90;;;;;;5013709;28;20200;-72
2021/04/14 10:46:05;;;;;;;6.00;2.23;;;20.30;99.90;;;;;;4998059;28;20208;-73
2021/04/14 10:48:50;;;;;;;5.17;2.23;;;20.30;99.90;;;;;;4999593;28;20546;-71
2021/04/14 10:51:23;;;;;;;4.70;2.43;;;20.30;99.90;;;;;;4998252;28;20190;-74
2021/04/14 10:53:57;;;;;;;5.30;2.70;;;20.20;99.90;;;;;;5015475;28;23141;-74
2021/04/14 10:56:28;;;;;;;4.77;2.10;;;20.30;99.90;;;;;;4996913;28;20185;-75
2021/04/14 10:58:57;;;;;;;5.17;2.67;;;20.10;99.90;;;;;;5016188;28;20200;-74
2021/04/14 11:01:46;;;;;;;2.57;2.30;;;20.00;99.90;;;;;;5017474;28;20216;-75
2021/04/14 11:04:15;;;;;;;3.97;2.30;;;19.90;99.90;;;;;;5013654;28;20642;-74
2021/04/14 11:06:50;;;;;;;3.97;2.80;;;19.90;99.90;;;;;;4997854;28;20259;-74
2021/04/14 11:09:20;;;;;;;6.20;2.70;;;19.90;99.90;;;;;;5000479;28;20185;-74
2021/04/14 11:11:49;;;;;;;5.03;2.50;;;19.80;99.90;;;;;;5001810;28;20581;-75
2021/04/14 11:14:19;;;;;;;5.47;2.43;;;19.60;99.90;;;;;;5006720;28;21014;-75
2021/04/14 11:16:48;;;;;;;4.50;2.70;;;19.60;99.90;;;;;;5003549;28;20246;-72
2021/04/14 11:19:25;;;;;;;4.70;2.60;;;19.60;99.90;;;;;;4988849;28;20237;-74
2021/04/14 11:22:05;;;;;;;5.50;2.90;;;19.60;99.90;;;;;;5001978;28;20219;-74
2021/04/14 11:24:43;;;;;;;6.07;2.60;;;19.70;99.90;;;;;;5002741;28;20204;-75
2021/04/14 11:27:28;;;;;;;9.00;2.77;;;19.70;99.90;;;;;;5003291;28;20193;-75
2021/04/14 11:30:15;;;;;;;6.47;2.70;;;19.70;99.90;;;;;;4982917;28;20192;-72
2021/04/14 11:32:57;;;;;;;4.43;2.67;;;19.70;99.90;;;;;;5005857;28;20663;-74
2021/04/14 11:35:47;;;;;;;4.93;2.80;;;19.60;99.90;;;;;;5023937;28;20275;-74
2021/04/14 11:38:58;;;;;;;8.13;3.00;;;19.40;99.90;;;;;;5022603;28;20200;-75
2021/04/14 11:41:39;;;;;;;5.07;2.73;;;19.40;99.90;;;;;;4970926;28;21006;-74
2021/04/14 11:44:49;;;;;;;6.03;3.20;;;19.40;99.90;;;;;;5006170;28;20283;-74
2021/04/14 11:47:40;;;;;;;4.80;2.87;;;19.30;99.90;;;;;;5004348;28;20289;-74
2021/04/14 11:50:34;;;;;;;3.80;2.60;;;19.30;99.90;;;;;;4989297;28;20208;-73
2021/04/14 11:53:08;;;;;;;5.63;2.67;;;19.30;99.90;;;;;;4984616;28;20197;-75
2021/04/14 11:55:39;;;;;;;3.80;2.60;;;19.40;99.90;;;;;;5008273;28;20204;-75
2021/04/14 11:58:46;;;;;;;5.97;2.60;;;19.60;99.90;;;;;;5021190;28;20189;-75
2021/04/14 12:01:27;;;;;;;4.10;2.40;;;19.50;99.90;;;;;;4985123;28;20917;-72
2021/04/14 12:03:54;;;;;;;4.70;2.70;;;19.50;99.90;;;;;;5002856;28;20210;-72
2021/04/14 12:06:21;;;;;;;11.27;3.07;;;19.30;99.90;;;;;;5001106;28;20828;-70
2021/04/14 12:08:47;;;;;;;13.33;3.00;;;19.30;99.90;;;;;;4999349;28;20228;-70
2021/04/14 12:11:25;;;;;;;13.67;2.77;;;19.40;99.90;;;;;;4998945;28;20213;-71
2021/04/14 12:13:51;;;;;;;4.07;2.67;;;19.50;99.90;;;;;;5001337;28;20189;-71
2021/04/14 12:16:18;;;;;;;4.83;3.03;;;19.50;99.90;;;;;;4996967;28;20220;-70
2021/04/14 12:18:46;;;;;;;5.47;2.63;;;19.40;99.90;;;;;;4984971;28;20194;-70
2021/04/14 12:21:13;;;;;;;4.10;2.57;;;19.30;99.90;;;;;;5013639;28;20235;-70
2021/04/14 12:23:40;;;;;;;9.63;2.63;;;19.20;99.90;;;;;;5004111;28;20740;-71
2021/04/14 12:26:07;;;;;;;7.17;2.80;;;19.30;99.90;;;;;;4998076;28;20690;-70
2021/04/14 12:28:34;;;;;;;6.20;2.80;;;19.30;99.90;;;;;;4998720;28;20186;-71
2021/04/14 12:31:01;;;;;;;4.77;2.80;;;19.20;99.90;;;;;;5004328;28;20196;-71
2021/04/14 12:33:27;;;;;;;5.53;2.70;;;19.30;99.90;;;;;;5004945;28;20188;-72
2021/04/14 12:35:54;;;;;;;4.53;2.80;;;19.10;99.90;;;;;;5003582;28;20195;-70
2021/04/14 12:38:22;;;;;;;11.33;2.60;;;19.10;99.90;;;;;;5016877;28;20542;-71
2021/04/14 12:40:49;;;;;;;5.77;2.77;;;19.20;99.90;;;;;;5002076;28;20231;-70
2021/04/14 12:43:16;;;;;;;3.63;2.63;;;19.30;99.90;;;;;;5010796;28;20275;-70
2021/04/14 12:45:49;;;;;;;6.30;2.87;;;19.10;99.90;;;;;;4984606;28;20182;-71
2021/04/14 12:48:26;;;;;;;6.87;2.77;;;19.20;99.90;;;;;;4997571;28;20185;-71
2021/04/14 12:51:17;;;;;;;4.47;2.70;;;19.10;99.90;;;;;;4998451;28;20287;-70
2021/04/14 12:54:02;;;;;;;3.87;2.80;;;19.00;99.90;;;;;;5016769;28;20185;-71
2021/04/14 12:56:36;;;;;;;4.67;2.90;;;19.10;99.90;;;;;;4998945;28;20184;-71
2021/04/14 12:59:09;;;;;;;5.43;2.17;;;19.00;99.90;;;;;;4998682;28;20535;-72
2021/04/14 13:01:38;;;;;;;6.17;2.50;;;19.20;99.90;;;;;;5000068;28;20297;-73
2021/04/14 13:04:16;;;;;;;4.70;2.60;;;18.90;99.90;;;;;;5001229;28;20181;-72
2021/04/14 13:06:52;;;;;;;4.63;2.80;;;18.90;99.90;;;;;;5001399;28;20300;-72
2021/04/14 13:09:23;;;;;;;2.37;2.17;;;19.00;99.90;;;;;;4989833;28;20688;-72
2021/04/14 13:12:22;;;;;;;5.77;2.60;;;18.90;99.90;;;;;;5015685;28;20200;-72
2021/04/14 13:14:49;;;;;;;3.90;2.13;;;18.80;99.90;;;;;;5014624;28;20193;-72
2021/04/14 13:17:25;;;;;;;4.00;2.40;;;18.90;99.90;;;;;;5003145;28;20213;-72
2021/04/14 13:19:53;;;;;;;3.93;2.50;;;18.80;99.90;;;;;;5016886;28;20192;-72
2021/04/14 13:23:05;;;;;;;2.93;2.20;;;18.60;99.90;;;;;;5002625;28;20657;-72